createdAt,value
2022-10-25T00:04:51.906Z,12.71
2022-10-25T00:09:53.373Z,12.71
2022-10-25T00:14:54.916Z,12.69
2022-10-25T00:19:56.362Z,12.68
2022-10-25T00:24:57.815Z,12.70
2022-10-25T00:29:59.319Z,12.71
2022-10-25T00:35:01.045Z,12.70
2022-10-25T00:40:04.769Z,12.72
2022-10-25T00:45:23.530Z,12.75
2022-10-25T00:50:43.528Z,12.80
2022-10-25T00:55:48.533Z,12.82
2022-10-25T01:00:50.439Z,12.81
2022-10-25T01:05:52.600Z,12.83
2022-10-25T01:10:54.057Z,12.84
2022-10-25T01:15:58.232Z,12.85
2022-10-25T01:21:30.821Z,12.85
2022-10-25T01:26:59.650Z,12.84
2022-10-25T01:32:08.824Z,12.86
2022-10-25T01:37:25.870Z,12.91
2022-10-25T01:42:35.594Z,12.94
2022-10-25T01:47:43.774Z,12.95
2022-10-25T01:52:45.415Z,12.98
2022-10-25T01:58:01.807Z,12.95
2022-10-25T02:03:10.738Z,12.93
2022-10-25T02:08:35.750Z,12.90
2022-10-25T02:13:46.027Z,12.93
2022-10-25T02:18:53.527Z,12.99
2022-10-25T02:23:55.939Z,13.04
2022-10-25T02:28:57.718Z,13.04
2022-10-25T02:33:59.410Z,13.01
2022-10-25T02:39:02.063Z,13.01
2022-10-25T02:44:03.567Z,13.00
2022-10-25T02:49:05.323Z,13.01
2022-10-25T02:54:06.888Z,12.98
2022-10-25T02:59:11.439Z,12.95
2022-10-25T03:04:12.913Z,12.94
2022-10-25T03:09:14.373Z,12.86
2022-10-25T03:14:15.916Z,12.84
2022-10-25T03:19:17.427Z,12.81
2022-10-25T03:24:18.958Z,12.80
2022-10-25T03:29:20.521Z,12.79
2022-10-25T03:34:22.060Z,12.83
2022-10-25T03:39:23.544Z,12.83
2022-10-25T03:44:25.065Z,12.82
2022-10-25T03:49:26.625Z,12.85
2022-10-25T03:54:29.325Z,12.88
2022-10-25T03:59:31.056Z,12.91
2022-10-25T04:04:32.543Z,12.89
2022-10-25T04:09:34.033Z,12.84
2022-10-25T04:14:35.510Z,12.76
2022-10-25T04:19:36.979Z,12.67
2022-10-25T04:24:38.635Z,12.64
2022-10-25T04:29:40.076Z,12.60
2022-10-25T04:34:41.525Z,12.56
2022-10-25T04:39:43.044Z,12.49
2022-10-25T04:44:44.551Z,12.46
2022-10-25T04:49:46.026Z,12.39
2022-10-25T04:54:47.493Z,12.40
2022-10-25T04:59:48.996Z,12.33
2022-10-25T05:04:50.442Z,12.26
2022-10-25T05:09:51.881Z,12.20
2022-10-25T05:14:53.346Z,12.15
2022-10-25T05:19:54.800Z,12.11
2022-10-25T05:24:56.255Z,12.12
2022-10-25T05:29:57.752Z,12.11
2022-10-25T05:34:59.198Z,12.11
2022-10-25T05:40:00.656Z,12.09
2022-10-25T05:45:02.112Z,12.11
2022-10-25T05:50:03.607Z,12.09
2022-10-25T05:55:05.487Z,12.08
2022-10-25T06:00:07.547Z,12.06
2022-10-25T06:05:09.233Z,12.04
2022-10-25T06:10:10.977Z,11.95
2022-10-25T06:15:12.513Z,11.95
2022-10-25T06:20:13.970Z,11.94
2022-10-25T06:25:15.506Z,11.92
2022-10-25T06:30:17.080Z,11.92
2022-10-25T06:35:18.581Z,11.91
2022-10-25T06:40:20.055Z,11.94
2022-10-25T06:45:21.697Z,11.97
2022-10-25T06:50:23.215Z,12.00
2022-10-25T06:55:24.726Z,12.05
2022-10-25T07:00:26.234Z,12.04
2022-10-25T07:05:27.726Z,12.09
2022-10-25T07:10:29.183Z,12.17
2022-10-25T07:15:30.626Z,12.21
2022-10-25T07:20:32.130Z,12.28
2022-10-25T07:25:33.604Z,12.34
2022-10-25T07:30:35.208Z,12.40
2022-10-25T07:35:46.632Z,12.49
2022-10-25T07:40:58.962Z,12.58
2022-10-25T07:46:00.519Z,12.72
2022-10-25T07:51:07.634Z,12.84
2022-10-25T07:56:20.639Z,12.96
2022-10-25T08:01:26.790Z,13.07
2022-10-25T08:06:28.538Z,13.20
2022-10-25T08:11:30.619Z,13.28
2022-10-25T08:16:32.080Z,13.38
2022-10-25T08:21:33.561Z,13.48
2022-10-25T08:26:36.911Z,13.59
2022-10-25T08:31:38.832Z,13.66
2022-10-25T08:36:40.322Z,13.81
2022-10-25T08:41:57.439Z,13.93
2022-10-25T08:47:26.918Z,14.03
2022-10-25T08:52:41.133Z,14.17
2022-10-25T08:57:46.871Z,14.30
2022-10-25T09:02:57.579Z,14.45
2022-10-25T09:08:37.914Z,14.63
2022-10-25T09:13:42.224Z,14.81
2022-10-25T09:18:51.135Z,15.00
2022-10-25T09:24:01.913Z,15.12
2022-10-25T09:29:13.250Z,15.10
2022-10-25T09:34:18.928Z,15.14
2022-10-25T09:39:34.326Z,15.07
2022-10-25T09:44:56.851Z,15.06
2022-10-25T09:50:15.669Z,15.05
2022-10-25T09:55:37.804Z,15.05
2022-10-25T10:00:40.665Z,15.17
2022-10-25T10:05:48.613Z,15.35
2022-10-25T10:10:51.587Z,15.38
2022-10-25T10:15:57.719Z,15.39
2022-10-25T10:21:14.361Z,15.51
2022-10-25T10:26:23.964Z,15.33
2022-10-25T10:31:35.876Z,15.19
2022-10-25T10:36:37.407Z,15.00
2022-10-25T10:42:03.473Z,15.02
2022-10-25T10:47:19.876Z,15.06
2022-10-25T10:53:01.230Z,15.09
2022-10-25T10:58:17.787Z,15.02
2022-10-25T11:03:45.202Z,14.97
2022-10-25T11:09:25.570Z,14.84
2022-10-25T11:14:27.070Z,14.79
2022-10-25T11:19:59.671Z,14.68
2022-10-25T11:25:16.874Z,14.45
2022-10-25T11:30:21.105Z,14.55
2022-10-25T11:35:44.444Z,14.58
2022-10-25T11:41:23.018Z,14.74
2022-10-25T11:46:52.361Z,14.84
2022-10-25T11:52:10.439Z,15.13
2022-10-25T11:57:46.679Z,15.10
2022-10-25T12:03:20.508Z,15.09
2022-10-25T12:08:37.405Z,14.94
2022-10-25T12:13:51.930Z,14.75
2022-10-25T12:19:19.320Z,14.62
2022-10-25T12:24:39.760Z,14.85
2022-10-25T12:29:54.405Z,14.78
2022-10-25T12:34:59.667Z,14.73
2022-10-25T12:40:01.274Z,14.42
2022-10-25T12:45:21.151Z,14.86
2022-10-25T12:50:28.564Z,14.73
2022-10-25T12:55:56.520Z,14.80
2022-10-25T13:01:36.779Z,14.78
2022-10-25T13:06:43.127Z,14.86
2022-10-25T13:12:02.162Z,14.79
2022-10-25T13:17:15.838Z,14.77
2022-10-25T13:22:36.010Z,14.90
2022-10-25T13:28:15.133Z,14.96
2022-10-25T13:33:27.556Z,14.86
2022-10-25T13:38:39.123Z,14.66
2022-10-25T13:44:03.267Z,14.85
2022-10-25T13:49:43.196Z,15.12
2022-10-25T13:54:49.322Z,15.08
2022-10-25T13:59:50.757Z,15.21
2022-10-25T14:04:52.397Z,15.11
2022-10-25T14:09:54.191Z,15.13
2022-10-25T14:15:07.851Z,15.17
2022-10-25T14:20:28.383Z,15.28
2022-10-25T14:25:36.501Z,14.91
2022-10-25T14:30:48.958Z,15.01
2022-10-25T14:36:10.835Z,15.07
2022-10-25T14:41:12.858Z,15.16
2022-10-25T14:46:16.574Z,15.25
2022-10-25T14:51:21.707Z,15.30
2022-10-25T14:56:42.222Z,15.20
2022-10-25T15:02:10.378Z,15.02
2022-10-25T15:07:24.073Z,15.08
2022-10-25T15:12:27.263Z,15.09
2022-10-25T15:17:30.600Z,15.11
2022-10-25T15:23:00.713Z,15.13
2022-10-25T15:28:10.780Z,15.06
2022-10-25T15:33:16.192Z,15.04
2022-10-25T15:38:17.994Z,15.01
2022-10-25T15:43:19.527Z,14.90
2022-10-25T15:48:23.660Z,14.81
2022-10-25T15:53:25.615Z,14.69
2022-10-25T15:58:27.081Z,14.57
2022-10-25T16:03:28.537Z,14.46
2022-10-25T16:08:30.366Z,14.37
2022-10-25T16:13:35.736Z,14.28
2022-10-25T16:18:37.183Z,14.17
2022-10-25T16:23:38.641Z,14.03
2022-10-25T16:28:40.867Z,13.91
2022-10-25T16:33:42.331Z,13.80
2022-10-25T16:38:43.793Z,13.70
2022-10-25T16:43:48.452Z,13.62
2022-10-25T16:48:51.162Z,13.52
2022-10-25T16:53:52.920Z,13.44
2022-10-25T16:58:54.480Z,13.37
2022-10-25T17:03:55.997Z,13.33
2022-10-25T17:08:57.481Z,13.36
2022-10-25T17:13:58.942Z,13.42
2022-10-25T17:19:00.456Z,13.45
2022-10-25T17:24:04.533Z,13.45
2022-10-25T17:29:06.011Z,13.36
2022-10-25T17:34:07.757Z,13.40
2022-10-25T17:39:10.509Z,13.46
2022-10-25T17:44:12.052Z,13.51
2022-10-25T17:49:13.654Z,13.58
2022-10-25T17:54:16.906Z,13.54
2022-10-25T17:59:18.427Z,13.53
2022-10-25T18:04:19.920Z,13.51
2022-10-25T18:09:21.363Z,13.49
2022-10-25T18:14:22.999Z,13.44
2022-10-25T18:19:24.540Z,13.38
2022-10-25T18:24:26.458Z,13.27
2022-10-25T18:29:27.941Z,13.14
2022-10-25T18:34:29.647Z,13.11
2022-10-25T18:39:31.116Z,13.04
2022-10-25T18:44:32.697Z,13.03
2022-10-25T18:49:34.176Z,12.94
2022-10-25T18:54:35.704Z,12.83
2022-10-25T18:59:37.193Z,12.73
2022-10-25T19:04:38.657Z,12.67
2022-10-25T19:09:40.143Z,12.69
2022-10-25T19:14:41.859Z,12.68
2022-10-25T19:19:43.360Z,12.67
2022-10-25T19:24:44.936Z,12.67
2022-10-25T19:29:46.504Z,12.61
2022-10-25T19:34:48.055Z,12.60
2022-10-25T19:39:49.539Z,12.50
2022-10-25T19:44:52.599Z,12.61
2022-10-25T19:49:54.123Z,12.59
2022-10-25T19:54:55.648Z,12.59
2022-10-25T19:59:57.194Z,12.56
2022-10-25T20:04:58.712Z,12.52
2022-10-25T20:10:00.215Z,12.42
2022-10-25T20:15:01.897Z,12.45
2022-10-25T20:20:03.692Z,12.43
2022-10-25T20:25:07.054Z,12.41
2022-10-25T20:30:08.883Z,12.35
2022-10-25T20:35:10.398Z,12.32
2022-10-25T20:40:12.242Z,12.28
2022-10-25T20:45:13.746Z,12.21
2022-10-25T20:50:15.247Z,12.15
2022-10-25T20:55:19.035Z,12.15
2022-10-25T21:00:20.814Z,12.11
2022-10-25T21:05:22.292Z,12.06
2022-10-25T21:10:23.884Z,12.06
2022-10-25T21:15:25.342Z,12.07
2022-10-25T21:20:26.934Z,12.06
2022-10-25T21:25:28.398Z,12.11
2022-10-25T21:30:30.998Z,12.12
2022-10-25T21:35:32.764Z,12.09
2022-10-25T21:40:34.240Z,12.08
2022-10-25T21:45:40.266Z,12.11
2022-10-25T21:50:41.778Z,12.11
2022-10-25T21:55:43.279Z,12.10
2022-10-25T22:00:44.787Z,12.11
2022-10-25T22:05:48.722Z,12.02
2022-10-25T22:11:04.691Z,12.07
2022-10-25T22:16:09.250Z,12.07
2022-10-25T22:21:12.444Z,12.04
2022-10-25T22:26:16.377Z,12.04
2022-10-25T22:31:19.258Z,12.00
2022-10-25T22:36:23.012Z,12.01
2022-10-25T22:41:26.251Z,12.01
2022-10-25T22:46:33.853Z,12.01
2022-10-25T22:51:35.548Z,12.00
2022-10-25T22:56:37.135Z,11.98
2022-10-25T23:01:38.862Z,11.97
2022-10-25T23:06:40.726Z,11.89
2022-10-25T23:11:42.266Z,11.78
2022-10-25T23:16:43.783Z,11.69
2022-10-25T23:21:45.266Z,11.71
2022-10-25T23:26:46.848Z,11.76
2022-10-25T23:31:48.354Z,11.76
2022-10-25T23:36:49.869Z,11.78
2022-10-25T23:41:56.561Z,11.73
2022-10-25T23:46:57.978Z,11.71
2022-10-25T23:51:59.539Z,11.68
2022-10-25T23:57:00.982Z,11.62
